Terminal Aerodrome Forecast
Issued by NWS Duluth, MN

Home | Current Version | Previous Version | Text Only | Print | Product List | Glossary On
Versions: 1 2 3 4 5 6 7 8 9 10 11 12 13 14 15 16 17 18 19 20 21 22 23 24 25 26 27 28 29 30 31 32 33 34 35 36 37 38 39 40 41 42 43 44
000
FTUS43 KDLH 261533 AAD
TAFDLH
TAF AMD
KDLH 261533Z 2616/2712 06006KT P6SM -RA OVC004
      TEMPO 2616/2618 5SM -RA BR OVC002
     FM261800 06006KT P6SM -DZ OVC007
     FM262100 05004KT P6SM BKN008
     FM270000 05004KT 2SM BR OVC008
     FM270600 36003KT 1 1/2SM BR OVC010=

USA.gov is the U.S. government's official web portal to all federal, state and local government web resources and services.